sensor_id;sensor_type;location;lat;lon;timestamp;P1;durP1;ratioP1;P2;durP2;ratioP2
20545;SDS011;10431;50.228;9.112;2023-05-07T00:00:22;3.75;;;1.98;;
20545;SDS011;10431;50.228;9.112;2023-05-07T00:02:48;2.42;;;1.60;;
20545;SDS011;10431;50.228;9.112;2023-05-07T00:05:14;2.38;;;1.52;;
20545;SDS011;10431;50.228;9.112;2023-05-07T00:07:40;4.07;;;1.65;;
20545;SDS011;10431;50.228;9.112;2023-05-07T00:10:07;4.55;;;1.67;;
20545;SDS011;10431;50.228;9.112;2023-05-07T00:12:33;2.95;;;1.60;;
20545;SDS011;10431;50.228;9.112;2023-05-07T00:15:03;3.03;;;1.55;;
20545;SDS011;10431;50.228;9.112;2023-05-07T00:17:30;3.50;;;1.70;;
20545;SDS011;10431;50.228;9.112;2023-05-07T00:19:56;3.33;;;1.70;;
20545;SDS011;10431;50.228;9.112;2023-05-07T00:22:22;4.28;;;1.80;;
20545;SDS011;10431;50.228;9.112;2023-05-07T00:24:49;2.38;;;1.67;;
20545;SDS011;10431;50.228;9.112;2023-05-07T00:27:15;5.63;;;2.00;;
20545;SDS011;10431;50.228;9.112;2023-05-07T00:29:42;2.03;;;1.70;;
20545;SDS011;10431;50.228;9.112;2023-05-07T00:32:08;3.53;;;1.83;;
20545;SDS011;10431;50.228;9.112;2023-05-07T00:34:34;2.92;;;1.73;;
20545;SDS011;10431;50.228;9.112;2023-05-07T00:37:01;2.97;;;2.03;;
20545;SDS011;10431;50.228;9.112;2023-05-07T00:39:27;1.85;;;1.55;;
20545;SDS011;10431;50.228;9.112;2023-05-07T00:41:53;2.78;;;1.60;;
20545;SDS011;10431;50.228;9.112;2023-05-07T00:44:19;3.58;;;1.50;;
20545;SDS011;10431;50.228;9.112;2023-05-07T00:46:45;2.75;;;1.70;;
20545;SDS011;10431;50.228;9.112;2023-05-07T00:49:15;2.50;;;1.65;;
20545;SDS011;10431;50.228;9.112;2023-05-07T00:51:42;2.30;;;1.80;;
20545;SDS011;10431;50.228;9.112;2023-05-07T00:54:08;2.33;;;1.80;;
20545;SDS011;10431;50.228;9.112;2023-05-07T00:56:34;2.17;;;1.60;;
20545;SDS011;10431;50.228;9.112;2023-05-07T00:59:02;2.40;;;1.50;;
20545;SDS011;10431;50.228;9.112;2023-05-07T01:01:28;3.78;;;1.63;;
20545;SDS011;10431;50.228;9.112;2023-05-07T01:03:55;4.53;;;1.85;;
20545;SDS011;10431;50.228;9.112;2023-05-07T01:06:21;1.98;;;1.48;;
20545;SDS011;10431;50.228;9.112;2023-05-07T01:08:50;1.90;;;1.70;;
20545;SDS011;10431;50.228;9.112;2023-05-07T01:11:18;3.08;;;1.60;;
20545;SDS011;10431;50.228;9.112;2023-05-07T01:13:46;2.15;;;1.65;;
20545;SDS011;10431;50.228;9.112;2023-05-07T01:16:14;1.98;;;1.60;;
20545;SDS011;10431;50.228;9.112;2023-05-07T01:18:41;2.10;;;1.60;;
20545;SDS011;10431;50.228;9.112;2023-05-07T01:21:07;2.60;;;1.40;;
20545;SDS011;10431;50.228;9.112;2023-05-07T01:23:37;4.15;;;1.60;;
20545;SDS011;10431;50.228;9.112;2023-05-07T01:26:05;1.50;;;1.40;;
20545;SDS011;10431;50.228;9.112;2023-05-07T01:28:33;2.67;;;1.95;;
20545;SDS011;10431;50.228;9.112;2023-05-07T01:31:01;2.25;;;1.40;;
20545;SDS011;10431;50.228;9.112;2023-05-07T01:33:30;3.22;;;1.83;;
20545;SDS011;10431;50.228;9.112;2023-05-07T01:35:59;5.63;;;1.50;;
20545;SDS011;10431;50.228;9.112;2023-05-07T01:38:27;2.05;;;1.40;;
20545;SDS011;10431;50.228;9.112;2023-05-07T01:40:54;2.00;;;1.30;;
20545;SDS011;10431;50.228;9.112;2023-05-07T01:43:21;3.22;;;1.50;;
20545;SDS011;10431;50.228;9.112;2023-05-07T01:45:47;2.58;;;1.77;;
20545;SDS011;10431;50.228;9.112;2023-05-07T01:48:15;1.70;;;1.30;;
20545;SDS011;10431;50.228;9.112;2023-05-07T01:50:42;1.90;;;1.70;;
20545;SDS011;10431;50.228;9.112;2023-05-07T01:53:08;2.53;;;1.50;;
20545;SDS011;10431;50.228;9.112;2023-05-07T01:55:35;3.25;;;1.70;;
20545;SDS011;10431;50.228;9.112;2023-05-07T01:58:03;1.58;;;1.40;;
20545;SDS011;10431;50.228;9.112;2023-05-07T02:00:29;2.58;;;1.70;;
20545;SDS011;10431;50.228;9.112;2023-05-07T02:02:56;2.38;;;1.42;;
20545;SDS011;10431;50.228;9.112;2023-05-07T02:05:45;2.47;;;1.50;;
20545;SDS011;10431;50.228;9.112;2023-05-07T02:08:18;4.10;;;1.42;;
20545;SDS011;10431;50.228;9.112;2023-05-07T02:10:45;2.72;;;1.60;;
20545;SDS011;10431;50.228;9.112;2023-05-07T02:13:11;1.80;;;1.48;;
20545;SDS011;10431;50.228;9.112;2023-05-07T02:15:37;1.65;;;1.48;;
20545;SDS011;10431;50.228;9.112;2023-05-07T02:18:05;1.67;;;1.40;;
20545;SDS011;10431;50.228;9.112;2023-05-07T02:20:37;1.98;;;1.30;;
20545;SDS011;10431;50.228;9.112;2023-05-07T02:23:03;2.33;;;1.40;;
20545;SDS011;10431;50.228;9.112;2023-05-07T02:25:29;1.60;;;1.50;;
20545;SDS011;10431;50.228;9.112;2023-05-07T02:27:56;4.70;;;1.42;;
20545;SDS011;10431;50.228;9.112;2023-05-07T02:30:29;1.70;;;1.40;;
20545;SDS011;10431;50.228;9.112;2023-05-07T02:32:57;2.45;;;1.63;;
20545;SDS011;10431;50.228;9.112;2023-05-07T02:35:24;1.58;;;1.42;;
20545;SDS011;10431;50.228;9.112;2023-05-07T02:37:51;2.28;;;1.40;;
20545;SDS011;10431;50.228;9.112;2023-05-07T02:40:18;4.13;;;1.40;;
20545;SDS011;10431;50.228;9.112;2023-05-07T02:42:44;2.25;;;1.33;;
20545;SDS011;10431;50.228;9.112;2023-05-07T02:45:10;1.85;;;1.48;;
20545;SDS011;10431;50.228;9.112;2023-05-07T02:47:37;2.20;;;1.67;;
20545;SDS011;10431;50.228;9.112;2023-05-07T02:50:04;1.73;;;1.30;;
20545;SDS011;10431;50.228;9.112;2023-05-07T02:52:31;1.83;;;1.50;;
20545;SDS011;10431;50.228;9.112;2023-05-07T02:54:57;2.10;;;1.52;;
20545;SDS011;10431;50.228;9.112;2023-05-07T02:57:23;2.22;;;1.60;;
20545;SDS011;10431;50.228;9.112;2023-05-07T02:59:49;3.20;;;1.33;;
20545;SDS011;10431;50.228;9.112;2023-05-07T03:02:18;1.75;;;1.40;;
20545;SDS011;10431;50.228;9.112;2023-05-07T03:04:44;1.48;;;1.38;;
20545;SDS011;10431;50.228;9.112;2023-05-07T03:07:10;2.92;;;1.52;;
20545;SDS011;10431;50.228;9.112;2023-05-07T03:09:37;1.65;;;1.27;;
20545;SDS011;10431;50.228;9.112;2023-05-07T03:12:03;2.75;;;1.60;;
20545;SDS011;10431;50.228;9.112;2023-05-07T03:14:30;2.08;;;1.40;;
20545;SDS011;10431;50.228;9.112;2023-05-07T03:16:56;1.63;;;1.52;;
20545;SDS011;10431;50.228;9.112;2023-05-07T03:19:22;1.33;;;1.20;;
20545;SDS011;10431;50.228;9.112;2023-05-07T03:21:48;2.83;;;1.40;;
20545;SDS011;10431;50.228;9.112;2023-05-07T03:24:15;2.72;;;1.50;;
20545;SDS011;10431;50.228;9.112;2023-05-07T03:26:41;1.80;;;1.33;;
20545;SDS011;10431;50.228;9.112;2023-05-07T03:29:07;3.78;;;1.65;;
20545;SDS011;10431;50.228;9.112;2023-05-07T03:31:33;1.77;;;1.30;;
20545;SDS011;10431;50.228;9.112;2023-05-07T03:34:01;1.60;;;1.42;;
20545;SDS011;10431;50.228;9.112;2023-05-07T03:36:27;2.17;;;1.40;;
20545;SDS011;10431;50.228;9.112;2023-05-07T03:38:54;2.45;;;1.42;;
20545;SDS011;10431;50.228;9.112;2023-05-07T03:41:24;2.15;;;1.10;;
20545;SDS011;10431;50.228;9.112;2023-05-07T03:43:51;1.60;;;1.50;;
20545;SDS011;10431;50.228;9.112;2023-05-07T03:46:17;1.50;;;1.25;;
20545;SDS011;10431;50.228;9.112;2023-05-07T03:48:44;1.25;;;1.15;;
20545;SDS011;10431;50.228;9.112;2023-05-07T03:51:12;1.80;;;1.45;;
20545;SDS011;10431;50.228;9.112;2023-05-07T03:53:38;1.65;;;1.52;;
20545;SDS011;10431;50.228;9.112;2023-05-07T03:56:05;1.40;;;1.30;;
20545;SDS011;10431;50.228;9.112;2023-05-07T03:58:35;1.48;;;1.35;;
20545;SDS011;10431;50.228;9.112;2023-05-07T04:01:06;2.20;;;1.40;;
20545;SDS011;10431;50.228;9.112;2023-05-07T04:03:33;1.73;;;1.35;;
20545;SDS011;10431;50.228;9.112;2023-05-07T04:05:59;3.17;;;1.52;;
20545;SDS011;10431;50.228;9.112;2023-05-07T04:08:26;1.58;;;1.40;;
20545;SDS011;10431;50.228;9.112;2023-05-07T04:10:54;1.50;;;1.30;;
20545;SDS011;10431;50.228;9.112;2023-05-07T04:13:26;2.42;;;1.30;;
20545;SDS011;10431;50.228;9.112;2023-05-07T04:15:53;1.60;;;1.38;;
20545;SDS011;10431;50.228;9.112;2023-05-07T04:18:20;1.48;;;1.38;;
20545;SDS011;10431;50.228;9.112;2023-05-07T04:20:48;1.75;;;1.30;;
20545;SDS011;10431;50.228;9.112;2023-05-07T04:23:17;1.75;;;1.42;;
20545;SDS011;10431;50.228;9.112;2023-05-07T04:25:44;2.08;;;1.20;;
20545;SDS011;10431;50.228;9.112;2023-05-07T04:28:43;1.70;;;1.30;;
20545;SDS011;10431;50.228;9.112;2023-05-07T04:31:09;2.25;;;1.60;;
20545;SDS011;10431;50.228;9.112;2023-05-07T04:33:37;1.92;;;1.40;;
20545;SDS011;10431;50.228;9.112;2023-05-07T04:36:04;1.42;;;1.30;;
20545;SDS011;10431;50.228;9.112;2023-05-07T04:38:35;1.65;;;1.25;;
20545;SDS011;10431;50.228;9.112;2023-05-07T04:41:03;1.77;;;1.40;;
20545;SDS011;10431;50.228;9.112;2023-05-07T04:43:32;2.83;;;1.60;;
20545;SDS011;10431;50.228;9.112;2023-05-07T04:45:59;1.40;;;1.30;;
20545;SDS011;10431;50.228;9.112;2023-05-07T04:48:26;2.50;;;1.40;;
20545;SDS011;10431;50.228;9.112;2023-05-07T04:50:54;2.05;;;1.30;;
20545;SDS011;10431;50.228;9.112;2023-05-07T04:53:21;1.45;;;1.30;;
20545;SDS011;10431;50.228;9.112;2023-05-07T04:55:49;1.55;;;1.15;;
20545;SDS011;10431;50.228;9.112;2023-05-07T04:58:22;2.08;;;1.10;;
20545;SDS011;10431;50.228;9.112;2023-05-07T05:00:48;1.30;;;1.20;;
20545;SDS011;10431;50.228;9.112;2023-05-07T05:03:15;2.13;;;1.30;;
20545;SDS011;10431;50.228;9.112;2023-05-07T05:05:41;1.63;;;1.42;;
20545;SDS011;10431;50.228;9.112;2023-05-07T05:08:07;1.50;;;1.40;;
20545;SDS011;10431;50.228;9.112;2023-05-07T05:10:37;1.73;;;1.48;;
20545;SDS011;10431;50.228;9.112;2023-05-07T05:13:04;2.13;;;1.33;;
20545;SDS011;10431;50.228;9.112;2023-05-07T05:15:31;1.23;;;1.13;;
20545;SDS011;10431;50.228;9.112;2023-05-07T05:17:57;2.00;;;1.35;;
20545;SDS011;10431;50.228;9.112;2023-05-07T05:20:24;2.20;;;1.60;;
20545;SDS011;10431;50.228;9.112;2023-05-07T05:22:50;2.55;;;1.13;;
20545;SDS011;10431;50.228;9.112;2023-05-07T05:25:16;1.67;;;1.42;;
20545;SDS011;10431;50.228;9.112;2023-05-07T05:27:42;1.38;;;1.27;;
20545;SDS011;10431;50.228;9.112;2023-05-07T05:30:08;1.30;;;1.20;;
20545;SDS011;10431;50.228;9.112;2023-05-07T05:32:36;1.65;;;1.35;;
20545;SDS011;10431;50.228;9.112;2023-05-07T05:35:02;1.58;;;1.20;;
20545;SDS011;10431;50.228;9.112;2023-05-07T05:37:29;1.73;;;1.25;;
20545;SDS011;10431;50.228;9.112;2023-05-07T05:39:58;1.40;;;1.30;;
20545;SDS011;10431;50.228;9.112;2023-05-07T05:42:26;1.40;;;1.30;;
20545;SDS011;10431;50.228;9.112;2023-05-07T05:44:53;2.28;;;1.40;;
20545;SDS011;10431;50.228;9.112;2023-05-07T05:47:19;1.35;;;1.20;;
20545;SDS011;10431;50.228;9.112;2023-05-07T05:49:46;1.33;;;1.23;;
20545;SDS011;10431;50.228;9.112;2023-05-07T05:52:14;1.83;;;1.35;;
20545;SDS011;10431;50.228;9.112;2023-05-07T05:54:42;1.17;;;1.10;;
20545;SDS011;10431;50.228;9.112;2023-05-07T05:57:08;1.13;;;1.05;;
20545;SDS011;10431;50.228;9.112;2023-05-07T05:59:35;1.80;;;1.20;;
20545;SDS011;10431;50.228;9.112;2023-05-07T06:02:01;1.27;;;1.10;;
20545;SDS011;10431;50.228;9.112;2023-05-07T06:04:28;1.45;;;1.30;;
20545;SDS011;10431;50.228;9.112;2023-05-07T06:06:55;1.92;;;1.40;;
20545;SDS011;10431;50.228;9.112;2023-05-07T06:09:23;1.88;;;1.23;;
20545;SDS011;10431;50.228;9.112;2023-05-07T06:11:50;1.65;;;1.30;;
20545;SDS011;10431;50.228;9.112;2023-05-07T06:14:17;1.40;;;1.25;;
20545;SDS011;10431;50.228;9.112;2023-05-07T06:16:43;1.42;;;1.30;;
20545;SDS011;10431;50.228;9.112;2023-05-07T06:19:10;2.83;;;1.90;;
20545;SDS011;10431;50.228;9.112;2023-05-07T06:21:38;1.58;;;1.48;;
20545;SDS011;10431;50.228;9.112;2023-05-07T06:24:06;1.77;;;1.27;;
20545;SDS011;10431;50.228;9.112;2023-05-07T06:26:32;2.15;;;1.52;;
20545;SDS011;10431;50.228;9.112;2023-05-07T06:28:58;2.85;;;1.40;;
20545;SDS011;10431;50.228;9.112;2023-05-07T06:31:28;1.83;;;1.60;;
20545;SDS011;10431;50.228;9.112;2023-05-07T06:34:01;1.92;;;1.52;;
20545;SDS011;10431;50.228;9.112;2023-05-07T06:36:33;2.45;;;1.70;;
20545;SDS011;10431;50.228;9.112;2023-05-07T06:39:05;3.47;;;1.90;;
20545;SDS011;10431;50.228;9.112;2023-05-07T06:41:31;3.17;;;1.80;;
20545;SDS011;10431;50.228;9.112;2023-05-07T06:44:04;2.20;;;1.70;;
20545;SDS011;10431;50.228;9.112;2023-05-07T06:46:37;3.88;;;1.98;;
20545;SDS011;10431;50.228;9.112;2023-05-07T06:49:04;2.90;;;1.50;;
20545;SDS011;10431;50.228;9.112;2023-05-07T06:51:30;2.85;;;1.85;;
20545;SDS011;10431;50.228;9.112;2023-05-07T06:54:01;2.92;;;2.00;;
20545;SDS011;10431;50.228;9.112;2023-05-07T06:56:27;2.95;;;1.85;;
20545;SDS011;10431;50.228;9.112;2023-05-07T06:58:54;2.45;;;2.00;;
20545;SDS011;10431;50.228;9.112;2023-05-07T07:01:20;2.30;;;2.10;;
20545;SDS011;10431;50.228;9.112;2023-05-07T07:03:47;3.38;;;2.47;;
20545;SDS011;10431;50.228;9.112;2023-05-07T07:06:13;3.13;;;2.65;;
20545;SDS011;10431;50.228;9.112;2023-05-07T07:08:39;5.10;;;3.70;;
20545;SDS011;10431;50.228;9.112;2023-05-07T07:11:07;5.53;;;4.43;;
20545;SDS011;10431;50.228;9.112;2023-05-07T07:13:37;5.95;;;5.05;;
20545;SDS011;10431;50.228;9.112;2023-05-07T07:16:03;7.20;;;5.88;;
20545;SDS011;10431;50.228;9.112;2023-05-07T07:18:30;7.55;;;5.22;;
20545;SDS011;10431;50.228;9.112;2023-05-07T07:20:57;6.03;;;5.40;;
20545;SDS011;10431;50.228;9.112;2023-05-07T07:23:25;7.00;;;5.30;;
20545;SDS011;10431;50.228;9.112;2023-05-07T07:25:51;5.53;;;4.93;;
20545;SDS011;10431;50.228;9.112;2023-05-07T07:28:20;7.93;;;5.63;;
20545;SDS011;10431;50.228;9.112;2023-05-07T07:30:46;8.10;;;5.28;;
20545;SDS011;10431;50.228;9.112;2023-05-07T07:33:14;6.25;;;4.68;;
20545;SDS011;10431;50.228;9.112;2023-05-07T07:35:41;5.30;;;4.80;;
20545;SDS011;10431;50.228;9.112;2023-05-07T07:38:07;6.82;;;5.43;;
20545;SDS011;10431;50.228;9.112;2023-05-07T07:40:37;6.38;;;4.80;;
20545;SDS011;10431;50.228;9.112;2023-05-07T07:43:05;5.93;;;5.05;;
20545;SDS011;10431;50.228;9.112;2023-05-07T07:45:31;6.22;;;4.43;;
20545;SDS011;10431;50.228;9.112;2023-05-07T07:47:58;4.75;;;4.25;;
20545;SDS011;10431;50.228;9.112;2023-05-07T07:50:24;5.25;;;4.35;;
20545;SDS011;10431;50.228;9.112;2023-05-07T07:52:50;5.05;;;4.55;;
20545;SDS011;10431;50.228;9.112;2023-05-07T07:55:19;6.03;;;4.18;;
20545;SDS011;10431;50.228;9.112;2023-05-07T07:57:49;6.43;;;4.88;;
20545;SDS011;10431;50.228;9.112;2023-05-07T08:00:16;8.30;;;4.93;;
20545;SDS011;10431;50.228;9.112;2023-05-07T08:02:42;8.55;;;5.25;;
20545;SDS011;10431;50.228;9.112;2023-05-07T08:05:11;8.13;;;6.03;;
20545;SDS011;10431;50.228;9.112;2023-05-07T08:07:38;8.82;;;5.20;;
20545;SDS011;10431;50.228;9.112;2023-05-07T08:10:05;8.88;;;5.70;;
20545;SDS011;10431;50.228;9.112;2023-05-07T08:12:32;9.48;;;5.68;;
20545;SDS011;10431;50.228;9.112;2023-05-07T08:14:58;7.10;;;5.78;;
20545;SDS011;10431;50.228;9.112;2023-05-07T08:17:25;6.15;;;5.55;;
20545;SDS011;10431;50.228;9.112;2023-05-07T08:19:51;6.53;;;5.60;;
20545;SDS011;10431;50.228;9.112;2023-05-07T08:22:18;10.40;;;5.80;;
20545;SDS011;10431;50.228;9.112;2023-05-07T08:24:45;6.78;;;5.85;;
20545;SDS011;10431;50.228;9.112;2023-05-07T08:27:12;11.00;;;6.18;;
20545;SDS011;10431;50.228;9.112;2023-05-07T08:29:40;8.30;;;6.25;;
20545;SDS011;10431;50.228;9.112;2023-05-07T08:32:07;7.50;;;5.60;;
20545;SDS011;10431;50.228;9.112;2023-05-07T08:34:33;11.75;;;6.13;;
20545;SDS011;10431;50.228;9.112;2023-05-07T08:37:02;6.47;;;5.43;;
20545;SDS011;10431;50.228;9.112;2023-05-07T08:39:30;6.72;;;6.03;;
20545;SDS011;10431;50.228;9.112;2023-05-07T08:41:56;7.25;;;6.22;;
20545;SDS011;10431;50.228;9.112;2023-05-07T08:44:28;9.35;;;5.80;;
20545;SDS011;10431;50.228;9.112;2023-05-07T08:47:00;10.90;;;5.80;;
20545;SDS011;10431;50.228;9.112;2023-05-07T08:49:29;6.60;;;5.88;;
20545;SDS011;10431;50.228;9.112;2023-05-07T08:51:55;9.15;;;5.25;;
20545;SDS011;10431;50.228;9.112;2023-05-07T08:54:22;7.93;;;6.10;;
20545;SDS011;10431;50.228;9.112;2023-05-07T08:56:49;8.63;;;6.03;;
20545;SDS011;10431;50.228;9.112;2023-05-07T08:59:15;9.25;;;5.75;;
20545;SDS011;10431;50.228;9.112;2023-05-07T09:01:43;7.25;;;5.40;;
20545;SDS011;10431;50.228;9.112;2023-05-07T09:04:10;8.88;;;5.72;;
20545;SDS011;10431;50.228;9.112;2023-05-07T09:06:38;6.82;;;5.88;;
20545;SDS011;10431;50.228;9.112;2023-05-07T09:09:08;7.95;;;5.65;;
20545;SDS011;10431;50.228;9.112;2023-05-07T09:11:35;8.43;;;5.97;;
20545;SDS011;10431;50.228;9.112;2023-05-07T09:14:02;8.02;;;5.75;;
20545;SDS011;10431;50.228;9.112;2023-05-07T09:16:33;8.85;;;5.53;;
20545;SDS011;10431;50.228;9.112;2023-05-07T09:19:00;8.27;;;5.63;;
20545;SDS011;10431;50.228;9.112;2023-05-07T09:21:27;10.00;;;5.60;;
20545;SDS011;10431;50.228;9.112;2023-05-07T09:23:55;6.70;;;5.15;;
20545;SDS011;10431;50.228;9.112;2023-05-07T09:26:28;6.78;;;5.20;;
20545;SDS011;10431;50.228;9.112;2023-05-07T09:28:54;6.47;;;5.15;;
20545;SDS011;10431;50.228;9.112;2023-05-07T09:31:21;6.15;;;5.40;;
20545;SDS011;10431;50.228;9.112;2023-05-07T09:33:49;7.13;;;5.20;;
20545;SDS011;10431;50.228;9.112;2023-05-07T09:36:17;7.45;;;5.53;;
20545;SDS011;10431;50.228;9.112;2023-05-07T09:38:44;5.95;;;5.40;;
20545;SDS011;10431;50.228;9.112;2023-05-07T09:41:12;6.75;;;5.00;;
20545;SDS011;10431;50.228;9.112;2023-05-07T09:43:45;6.22;;;5.47;;
20545;SDS011;10431;50.228;9.112;2023-05-07T09:46:18;6.20;;;5.03;;
20545;SDS011;10431;50.228;9.112;2023-05-07T09:48:52;7.22;;;4.63;;
20545;SDS011;10431;50.228;9.112;2023-05-07T09:51:22;9.05;;;5.20;;
20545;SDS011;10431;50.228;9.112;2023-05-07T09:53:55;8.05;;;5.35;;
20545;SDS011;10431;50.228;9.112;2023-05-07T09:56:24;6.30;;;5.00;;
20545;SDS011;10431;50.228;9.112;2023-05-07T09:58:51;7.05;;;4.90;;
20545;SDS011;10431;50.228;9.112;2023-05-07T10:01:20;6.10;;;4.97;;
20545;SDS011;10431;50.228;9.112;2023-05-07T10:03:48;6.65;;;5.20;;
20545;SDS011;10431;50.228;9.112;2023-05-07T10:06:19;5.90;;;5.00;;
20545;SDS011;10431;50.228;9.112;2023-05-07T10:08:46;6.55;;;4.93;;
20545;SDS011;10431;50.228;9.112;2023-05-07T10:11:13;7.72;;;4.72;;
20545;SDS011;10431;50.228;9.112;2023-05-07T10:13:41;7.07;;;5.15;;
20545;SDS011;10431;50.228;9.112;2023-05-07T10:16:09;8.00;;;4.75;;
20545;SDS011;10431;50.228;9.112;2023-05-07T10:18:41;7.50;;;5.32;;
20545;SDS011;10431;50.228;9.112;2023-05-07T10:21:16;7.82;;;5.15;;
20545;SDS011;10431;50.228;9.112;2023-05-07T10:23:51;11.50;;;5.25;;
20545;SDS011;10431;50.228;9.112;2023-05-07T10:26:24;6.20;;;4.88;;
20545;SDS011;10431;50.228;9.112;2023-05-07T10:28:54;8.52;;;5.10;;
20545;SDS011;10431;50.228;9.112;2023-05-07T10:31:33;8.25;;;4.97;;
20545;SDS011;10431;50.228;9.112;2023-05-07T10:34:12;7.18;;;4.93;;
20545;SDS011;10431;50.228;9.112;2023-05-07T10:36:44;6.65;;;5.40;;
20545;SDS011;10431;50.228;9.112;2023-05-07T10:39:11;5.28;;;4.60;;
20545;SDS011;10431;50.228;9.112;2023-05-07T10:41:39;24.90;;;5.35;;
20545;SDS011;10431;50.228;9.112;2023-05-07T10:44:06;8.75;;;4.55;;
20545;SDS011;10431;50.228;9.112;2023-05-07T10:46:34;8.35;;;4.85;;
20545;SDS011;10431;50.228;9.112;2023-05-07T10:49:20;9.40;;;4.88;;
20545;SDS011;10431;50.228;9.112;2023-05-07T10:54:44;6.25;;;4.50;;
20545;SDS011;10431;50.228;9.112;2023-05-07T11:00:09;6.65;;;4.90;;
20545;SDS011;10431;50.228;9.112;2023-05-07T11:05:32;6.03;;;4.93;;
20545;SDS011;10431;50.228;9.112;2023-05-07T11:08:15;6.50;;;4.80;;
20545;SDS011;10431;50.228;9.112;2023-05-07T11:11:07;7.88;;;4.97;;
20545;SDS011;10431;50.228;9.112;2023-05-07T11:13:42;16.13;;;5.10;;
20545;SDS011;10431;50.228;9.112;2023-05-07T11:16:23;5.45;;;4.75;;
20545;SDS011;10431;50.228;9.112;2023-05-07T11:18:58;10.25;;;5.50;;
20545;SDS011;10431;50.228;9.112;2023-05-07T11:21:40;8.20;;;5.10;;
20545;SDS011;10431;50.228;9.112;2023-05-07T11:24:37;8.88;;;4.95;;
20545;SDS011;10431;50.228;9.112;2023-05-07T11:27:06;7.95;;;4.63;;
20545;SDS011;10431;50.228;9.112;2023-05-07T11:29:33;6.57;;;4.97;;
20545;SDS011;10431;50.228;9.112;2023-05-07T11:32:05;5.60;;;4.72;;
20545;SDS011;10431;50.228;9.112;2023-05-07T11:34:38;6.85;;;4.55;;
20545;SDS011;10431;50.228;9.112;2023-05-07T11:37:05;5.40;;;4.70;;
20545;SDS011;10431;50.228;9.112;2023-05-07T11:39:41;6.53;;;4.75;;
20545;SDS011;10431;50.228;9.112;2023-05-07T11:42:07;6.20;;;4.57;;
20545;SDS011;10431;50.228;9.112;2023-05-07T11:44:50;6.80;;;4.78;;
20545;SDS011;10431;50.228;9.112;2023-05-07T11:47:17;5.78;;;4.63;;
20545;SDS011;10431;50.228;9.112;2023-05-07T11:49:47;7.18;;;4.25;;
20545;SDS011;10431;50.228;9.112;2023-05-07T11:52:14;6.72;;;4.63;;
20545;SDS011;10431;50.228;9.112;2023-05-07T11:54:48;6.50;;;4.60;;
20545;SDS011;10431;50.228;9.112;2023-05-07T11:57:19;5.13;;;4.55;;
20545;SDS011;10431;50.228;9.112;2023-05-07T11:59:45;5.25;;;4.40;;
20545;SDS011;10431;50.228;9.112;2023-05-07T12:02:14;6.70;;;4.53;;
20545;SDS011;10431;50.228;9.112;2023-05-07T12:04:44;8.18;;;4.78;;
20545;SDS011;10431;50.228;9.112;2023-05-07T12:07:14;5.00;;;4.45;;
20545;SDS011;10431;50.228;9.112;2023-05-07T12:09:41;5.35;;;4.25;;
20545;SDS011;10431;50.228;9.112;2023-05-07T12:12:08;7.35;;;4.57;;
20545;SDS011;10431;50.228;9.112;2023-05-07T12:14:39;5.78;;;4.95;;
20545;SDS011;10431;50.228;9.112;2023-05-07T12:17:09;5.38;;;4.20;;
20545;SDS011;10431;50.228;9.112;2023-05-07T12:19:37;6.60;;;4.40;;
20545;SDS011;10431;50.228;9.112;2023-05-07T12:22:07;8.43;;;4.97;;
20545;SDS011;10431;50.228;9.112;2023-05-07T12:27:14;6.05;;;4.50;;
20545;SDS011;10431;50.228;9.112;2023-05-07T12:29:45;6.57;;;4.65;;
20545;SDS011;10431;50.228;9.112;2023-05-07T12:32:13;6.57;;;4.20;;
20545;SDS011;10431;50.228;9.112;2023-05-07T12:34:40;5.38;;;4.50;;
20545;SDS011;10431;50.228;9.112;2023-05-07T12:37:07;6.07;;;4.60;;
20545;SDS011;10431;50.228;9.112;2023-05-07T12:39:33;8.07;;;4.90;;
20545;SDS011;10431;50.228;9.112;2023-05-07T12:41:59;11.77;;;5.22;;
20545;SDS011;10431;50.228;9.112;2023-05-07T12:44:29;13.73;;;5.10;;
20545;SDS011;10431;50.228;9.112;2023-05-07T12:46:57;6.78;;;4.80;;
20545;SDS011;10431;50.228;9.112;2023-05-07T12:49:23;8.70;;;4.63;;
20545;SDS011;10431;50.228;9.112;2023-05-07T12:51:50;9.00;;;4.15;;
20545;SDS011;10431;50.228;9.112;2023-05-07T12:54:32;9.77;;;4.80;;
20545;SDS011;10431;50.228;9.112;2023-05-07T12:57:01;10.88;;;5.00;;
20545;SDS011;10431;50.228;9.112;2023-05-07T12:59:32;8.50;;;4.80;;
20545;SDS011;10431;50.228;9.112;2023-05-07T13:02:05;16.23;;;4.40;;
20545;SDS011;10431;50.228;9.112;2023-05-07T13:04:34;7.00;;;4.45;;
20545;SDS011;10431;50.228;9.112;2023-05-07T13:07:01;5.22;;;4.72;;
20545;SDS011;10431;50.228;9.112;2023-05-07T13:09:28;7.15;;;4.45;;
20545;SDS011;10431;50.228;9.112;2023-05-07T13:11:57;12.15;;;4.35;;
20545;SDS011;10431;50.228;9.112;2023-05-07T13:14:26;9.38;;;4.70;;
20545;SDS011;10431;50.228;9.112;2023-05-07T13:16:53;8.02;;;4.20;;
20545;SDS011;10431;50.228;9.112;2023-05-07T13:19:19;10.90;;;4.22;;
20545;SDS011;10431;50.228;9.112;2023-05-07T13:21:45;6.15;;;3.92;;
20545;SDS011;10431;50.228;9.112;2023-05-07T13:24:11;8.80;;;3.58;;
20545;SDS011;10431;50.228;9.112;2023-05-07T13:26:37;4.53;;;3.67;;
20545;SDS011;10431;50.228;9.112;2023-05-07T13:29:03;7.40;;;3.80;;
20545;SDS011;10431;50.228;9.112;2023-05-07T13:31:30;4.25;;;3.78;;
20545;SDS011;10431;50.228;9.112;2023-05-07T13:33:56;7.80;;;3.72;;
20545;SDS011;10431;50.228;9.112;2023-05-07T13:36:22;6.13;;;3.42;;
20545;SDS011;10431;50.228;9.112;2023-05-07T13:38:48;8.80;;;3.53;;
20545;SDS011;10431;50.228;9.112;2023-05-07T13:41:17;8.63;;;3.92;;
20545;SDS011;10431;50.228;9.112;2023-05-07T13:43:43;8.60;;;3.30;;
20545;SDS011;10431;50.228;9.112;2023-05-07T13:46:09;4.22;;;3.28;;
20545;SDS011;10431;50.228;9.112;2023-05-07T13:48:35;9.48;;;3.60;;
20545;SDS011;10431;50.228;9.112;2023-05-07T13:51:01;5.28;;;3.35;;
20545;SDS011;10431;50.228;9.112;2023-05-07T13:53:28;3.83;;;3.42;;
20545;SDS011;10431;50.228;9.112;2023-05-07T13:55:54;3.40;;;3.10;;
20545;SDS011;10431;50.228;9.112;2023-05-07T13:58:20;4.72;;;3.08;;
20545;SDS011;10431;50.228;9.112;2023-05-07T14:00:46;4.30;;;3.05;;
20545;SDS011;10431;50.228;9.112;2023-05-07T14:03:12;5.18;;;3.20;;
20545;SDS011;10431;50.228;9.112;2023-05-07T14:05:39;3.55;;;3.03;;
20545;SDS011;10431;50.228;9.112;2023-05-07T14:08:06;3.92;;;3.50;;
20545;SDS011;10431;50.228;9.112;2023-05-07T14:10:33;4.25;;;3.45;;
20545;SDS011;10431;50.228;9.112;2023-05-07T14:13:00;5.97;;;3.60;;
20545;SDS011;10431;50.228;9.112;2023-05-07T14:15:26;4.03;;;3.20;;
20545;SDS011;10431;50.228;9.112;2023-05-07T14:17:53;5.43;;;3.47;;
20545;SDS011;10431;50.228;9.112;2023-05-07T14:20:20;4.75;;;3.60;;
20545;SDS011;10431;50.228;9.112;2023-05-07T14:22:46;4.60;;;3.70;;
20545;SDS011;10431;50.228;9.112;2023-05-07T14:25:12;3.85;;;3.40;;
20545;SDS011;10431;50.228;9.112;2023-05-07T14:27:38;6.10;;;3.63;;
20545;SDS011;10431;50.228;9.112;2023-05-07T14:30:05;4.78;;;3.38;;
20545;SDS011;10431;50.228;9.112;2023-05-07T14:32:32;4.28;;;3.88;;
20545;SDS011;10431;50.228;9.112;2023-05-07T14:34:58;4.22;;;3.63;;
20545;SDS011;10431;50.228;9.112;2023-05-07T14:37:25;4.32;;;3.55;;
20545;SDS011;10431;50.228;9.112;2023-05-07T14:39:51;5.97;;;3.75;;
20545;SDS011;10431;50.228;9.112;2023-05-07T14:42:17;4.25;;;3.65;;
20545;SDS011;10431;50.228;9.112;2023-05-07T14:44:44;4.47;;;3.90;;
20545;SDS011;10431;50.228;9.112;2023-05-07T14:47:12;9.00;;;3.60;;
20545;SDS011;10431;50.228;9.112;2023-05-07T14:49:38;5.53;;;4.03;;
20545;SDS011;10431;50.228;9.112;2023-05-07T14:52:06;5.97;;;4.00;;
20545;SDS011;10431;50.228;9.112;2023-05-07T14:54:33;5.78;;;4.07;;
20545;SDS011;10431;50.228;9.112;2023-05-07T14:57:04;6.28;;;3.90;;
20545;SDS011;10431;50.228;9.112;2023-05-07T14:59:30;6.05;;;4.15;;
20545;SDS011;10431;50.228;9.112;2023-05-07T15:01:57;6.28;;;4.13;;
20545;SDS011;10431;50.228;9.112;2023-05-07T15:04:24;5.53;;;4.03;;